Pays
Station

 

Conditions  météo  pour  Kairouan  -  Tunisie    Tunisie

  
23 °C
    
 
 

METAR pour Kairouan :

DTTK 230400Z 33008KT 290V010 6000 SCT023 23/19 Q1018

 

Voici le bulletin pour Kairouan - Tunisie.
 
Le bulletin a été fait il y a 43 minutes, à 04:00 UTC .
Le vent soufflait à la vitesse de 4.1 mètres par seconde de Nord/Nord-ouest (330°), variant entre Ouest/Nord-ouest (290°) et Nord (010°).
 
La température était de 23 °C, avec un point de rosée à 19 °C.
La température ressentie était de 23 °C.
 
La pression atmosphérique était de 1018 hPa.
L'humidité relative était de 78.2%.
 
Il y avait 3 à 4/8ème de nébulosité à une hauteur de 701 mètres.
 
La visibilité globale était de 6.0 kilomètres.
 

 
 
 

Pays :   A   B   C   D   E   F   G   H   I   J   K   L   M   N   O   P   Q   R   S   T   U   V   W   Y   Z

 

Partenaires :  Info Météo avec Met'info
Météo Marine avec MeteoMarine.net
Infos Site  |  Infos Légales  |  Crédits  |  Confidentialité
Contactez-nous  |  Ajouter aux favoris
© 2013-2018 METAR - Tous droits réservés